Time;durP1;ratioP1;P1;durP2;ratioP2;P2;SDS_P1;SDS_P2;PMS_P1;PMS_P2;Temp;Humidity;BMP_temperature;BMP_pressure;BME280_temperature;BME280_humidity;BME280_pressure;Samples;Min_cycle;Max_cycle;Signal;HPM_P1;HPM_P2
2021/04/26 00:01:53;;;;;;;29.57;9.18;;;;;;;2.76;100.00;101152.56;1779872;80;21188;-83
2021/04/26 00:04:18;;;;;;;30.80;9.28;;;;;;;2.79;100.00;101145.01;1779833;80;21294;-83
2021/04/26 00:06:45;;;;;;;27.48;9.68;;;;;;;2.83;100.00;101142.80;1779673;80;21057;-82
2021/04/26 00:09:11;;;;;;;24.25;9.23;;;;;;;2.85;100.00;101150.88;1779831;80;21159;-83
2021/04/26 00:11:36;;;;;;;25.72;9.63;;;;;;;2.87;100.00;101162.16;1780069;80;20934;-83
2021/04/26 00:14:05;;;;;;;25.68;8.48;;;;;;;2.87;100.00;101158.69;1779920;80;21037;-83
2021/04/26 00:16:31;;;;;;;26.05;8.23;;;;;;;2.89;100.00;101162.80;1780139;80;21905;-83
2021/04/26 00:18:57;;;;;;;29.15;10.23;;;;;;;2.90;100.00;101154.30;1779901;80;21140;-83
2021/04/26 00:21:24;;;;;;;29.63;9.48;;;;;;;2.90;100.00;101147.13;1779895;80;21152;-84
2021/04/26 00:23:49;;;;;;;31.80;9.38;;;;;;;2.95;100.00;101147.89;1780014;80;21180;-83
2021/04/26 00:26:15;;;;;;;25.45;8.75;;;;;;;2.99;100.00;101153.64;1749365;80;20962;-84
2021/04/26 00:28:43;;;;;;;23.65;7.72;;;;;;;3.00;100.00;101149.47;1780038;80;22002;-84
2021/04/26 00:31:09;;;;;;;22.62;8.43;;;;;;;3.05;100.00;101147.53;1779907;80;21558;-84
2021/04/26 00:33:35;;;;;;;21.52;7.80;;;;;;;3.05;100.00;101149.67;1780202;80;21151;-84
2021/04/26 00:36:01;;;;;;;20.17;7.58;;;;;;;3.08;100.00;101145.28;1779914;80;20970;-84
2021/04/26 00:38:26;;;;;;;19.00;7.60;;;;;;;3.07;100.00;101146.31;1779966;80;21045;-84
2021/04/26 00:40:52;;;;;;;22.37;7.50;;;;;;;3.07;100.00;101147.65;1779900;80;21553;-84
2021/04/26 00:43:18;;;;;;;17.90;7.40;;;;;;;3.08;100.00;101143.14;1780102;80;21021;-84
2021/04/26 00:45:44;;;;;;;19.02;7.45;;;;;;;3.09;100.00;101142.11;1780030;80;21140;-84
2021/04/26 00:48:10;;;;;;;22.22;6.90;;;;;;;3.13;100.00;101143.38;1779997;80;21576;-84
2021/04/26 00:50:38;;;;;;;20.02;7.80;;;;;;;3.13;100.00;101136.20;1779844;80;21545;-84
2021/04/26 00:53:05;;;;;;;17.50;6.92;;;;;;;3.10;100.00;101131.80;1779843;80;21263;-83
2021/04/26 00:55:35;;;;;;;23.05;8.53;;;;;;;3.09;100.00;101130.98;1749042;80;21164;-83
2021/04/26 00:58:02;;;;;;;20.15;7.62;;;;;;;3.09;100.00;101123.47;1741118;82;21140;-83
2021/04/26 01:00:30;;;;;;;20.82;7.90;;;;;;;3.09;100.00;101118.99;1741258;82;21093;-83
2021/04/26 01:02:57;;;;;;;21.60;8.00;;;;;;;3.10;100.00;101119.81;1742074;82;21121;-83
2021/04/26 01:05:27;;;;;;;33.60;11.10;;;;;;;3.11;100.00;101111.61;1741041;82;21176;-84
2021/04/26 01:07:54;;;;;;;66.67;18.80;;;;;;;3.04;100.00;101112.09;1740943;82;21168;-83
2021/04/26 01:10:25;;;;;;;29.98;9.85;;;;;;;3.03;100.00;101114.95;1741012;82;21176;-83
2021/04/26 01:12:59;;;;;;;40.38;13.32;;;;;;;3.01;100.00;101113.83;1726615;82;21169;-82
2021/04/26 01:15:33;;;;;;;65.90;19.42;;;;;;;3.00;100.00;101118.84;1711528;83;21160;-82
2021/04/26 01:18:07;;;;;;;55.35;15.65;;;;;;;2.96;100.00;101114.41;1707914;83;22237;-83
2021/04/26 01:20:59;;;;;;;43.42;15.18;;;;;;;2.90;100.00;101117.85;1707693;83;21235;-82
2021/04/26 01:23:55;;;;;;;54.85;17.35;;;;;;;2.91;100.00;101116.00;1711565;83;21228;-83
2021/04/26 01:26:48;;;;;;;60.28;19.05;;;;;;;2.91;100.00;101106.69;1711427;83;21195;-83
2021/04/26 01:29:38;;;;;;;64.35;18.48;;;;;;;2.90;100.00;101109.87;1711666;83;21532;-83
2021/04/26 01:32:32;;;;;;;61.37;18.37;;;;;;;2.88;100.00;101104.42;1687527;83;21418;-83
2021/04/26 01:34:59;;;;;;;;;;;;;;;2.86;100.00;101107.30;1713837;83;21219;-82
2021/04/26 01:37:28;;;;;;;54.05;16.32;;;;;;;2.78;100.00;101107.96;1711640;83;20523;-83
2021/04/26 01:39:55;;;;;;;54.55;16.23;;;;;;;2.77;100.00;101103.16;1711374;83;21235;-82
2021/04/26 01:42:22;;;;;;;47.25;15.40;;;;;;;2.76;100.00;101100.16;1718032;83;21128;-83
2021/04/26 01:44:48;;;;;;;47.93;14.53;;;;;;;2.76;100.00;101098.83;1719351;83;21200;-83
2021/04/26 01:47:16;;;;;;;47.17;15.72;;;;;;;2.77;100.00;101095.17;1715176;83;21576;-83
2021/04/26 01:49:42;;;;;;;54.63;17.40;;;;;;;2.77;100.00;101094.35;1719328;83;21195;-83
2021/04/26 01:52:11;;;;;;;51.37;15.45;;;;;;;2.76;100.00;101094.02;1725866;82;21076;-82
2021/04/26 01:54:38;;;;;;;50.38;16.60;;;;;;;2.73;100.00;101089.39;1738593;80;21534;-83
2021/04/26 01:57:05;;;;;;;61.37;17.15;;;;;;;2.67;100.00;101098.16;1788534;79;21168;-82
2021/04/26 01:59:34;;;;;;;48.30;16.25;;;;;;;2.62;100.00;101094.47;1788368;80;21181;-83
2021/04/26 02:02:00;;;;;;;50.45;15.60;;;;;;;2.58;100.00;101089.20;1788517;80;21145;-83
2021/04/26 02:04:29;;;;;;;43.58;15.60;;;;;;;2.55;100.00;101091.73;1788524;80;21612;-83
2021/04/26 02:06:56;;;;;;;50.48;16.52;;;;;;;2.52;100.00;101088.14;1788604;79;21142;-83
2021/04/26 02:09:23;;;;;;;49.08;16.17;;;;;;;2.48;100.00;101088.23;1788558;80;21213;-82
2021/04/26 02:11:49;;;;;;;53.78;16.75;;;;;;;2.41;100.00;101087.34;1788274;79;21116;-82
2021/04/26 02:14:16;;;;;;;57.45;17.20;;;;;;;2.39;100.00;101085.41;1788521;79;20915;-83
2021/04/26 02:16:43;;;;;;;47.67;16.73;;;;;;;2.36;100.00;101089.27;1788532;79;21585;-83
2021/04/26 02:19:11;;;;;;;49.77;15.50;;;;;;;2.36;100.00;101087.13;1788597;79;21462;-83
2021/04/26 02:21:40;;;;;;;41.77;14.63;;;;;;;2.32;100.00;101082.67;1788454;80;21835;-83
2021/04/26 02:24:09;;;;;;;46.10;15.85;;;;;;;2.30;100.00;101084.72;1788418;79;21037;-83
2021/04/26 02:26:36;;;;;;;46.90;15.05;;;;;;;2.25;100.00;101086.62;1717864;83;22194;-83
2021/04/26 02:29:04;;;;;;;47.08;14.85;;;;;;;2.25;100.00;101085.80;1717694;83;21188;-83
2021/04/26 02:31:33;;;;;;;34.43;13.32;;;;;;;2.23;100.00;101081.99;1718039;83;21191;-83
2021/04/26 02:34:10;;;;;;;36.20;12.95;;;;;;;2.24;100.00;101079.67;1717861;83;21223;-84
2021/04/26 02:36:42;;;;;;;37.80;14.10;;;;;;;2.30;100.00;101079.41;1713452;83;21677;-83
2021/04/26 02:39:08;;;;;;;41.35;13.90;;;;;;;2.35;100.00;101079.62;1714449;83;21164;-84
2021/04/26 02:41:42;;;;;;;40.65;13.25;;;;;;;2.38;100.00;101077.09;1714719;83;21208;-83
2021/04/26 02:44:20;;;;;;;;;;;;;;;2.38;100.00;101067.78;1712294;83;21652;-83
2021/04/26 02:46:47;;;;;;;33.02;12.43;;;;;;;2.40;100.00;101072.41;1681406;85;21180;-83
2021/04/26 02:49:14;;;;;;;39.92;12.98;;;;;;;2.42;100.00;101069.88;1680965;85;21219;-83
2021/04/26 02:51:40;;;;;;;35.43;11.75;;;;;;;2.47;100.00;101070.60;1681488;85;21164;-83
2021/04/26 02:54:07;;;;;;;26.42;10.95;;;;;;;2.48;100.00;101073.08;1681890;85;21060;-83
2021/04/26 02:56:41;;;;;;;30.15;11.18;;;;;;;2.61;100.00;101072.34;1682102;85;21172;-83
2021/04/26 02:59:10;;;;;;;27.67;11.75;;;;;;;2.68;100.00;101074.55;1681261;85;21592;-83
2021/04/26 03:01:37;;;;;;;34.70;12.58;;;;;;;2.69;100.00;101075.36;1681119;85;21589;-83
2021/04/26 03:04:04;;;;;;;33.15;11.90;;;;;;;2.78;100.00;101072.03;1658266;85;21716;-83
2021/04/26 03:06:31;;;;;;;32.03;11.70;;;;;;;2.90;100.00;101062.47;1681403;85;21442;-84
2021/04/26 03:08:58;;;;;;;37.33;11.48;;;;;;;2.97;100.00;101059.31;1681240;85;21071;-84
2021/04/26 03:11:26;;;;;;;35.38;12.33;;;;;;;3.08;100.00;101061.42;1681340;85;21242;-84
2021/04/26 03:13:53;;;;;;;32.10;12.25;;;;;;;3.19;100.00;101063.52;1677431;85;21200;-84
2021/04/26 03:16:19;;;;;;;28.83;12.53;;;;;;;3.30;100.00;101058.65;1681337;85;21147;-83
2021/04/26 03:18:45;;;;;;;30.50;12.20;;;;;;;3.35;100.00;101061.02;1681333;85;21594;-83
2021/04/26 03:21:13;;;;;;;36.30;12.00;;;;;;;3.40;100.00;101057.22;1681262;85;21132;-84
2021/04/26 03:23:42;;;;;;;36.35;12.85;;;;;;;3.50;100.00;101050.20;1692813;83;21274;-84
2021/04/26 03:26:09;;;;;;;33.53;12.58;;;;;;;3.55;100.00;101046.91;1709772;83;21044;-84
2021/04/26 03:28:42;;;;;;;37.75;12.98;;;;;;;3.57;100.00;101052.87;1709941;83;21612;-84
2021/04/26 03:31:09;;;;;;;40.05;13.62;;;;;;;3.76;100.00;101049.39;1779980;80;21144;-84
2021/04/26 03:33:36;;;;;;;34.10;12.60;;;;;;;3.99;100.00;101048.19;1749361;80;21254;-85
2021/04/26 03:36:05;;;;;;;29.92;11.95;;;;;;;4.31;100.00;101049.20;1779744;80;21215;-85
2021/04/26 03:38:32;;;;;;;36.35;11.95;;;;;;;4.79;100.00;101051.55;1779760;80;21561;-85
2021/04/26 03:40:58;;;;;;;29.40;11.33;;;;;;;5.45;100.00;101057.95;1779973;80;21157;-85
2021/04/26 03:43:25;;;;;;;33.23;11.88;;;;;;;6.31;100.00;101055.19;1783146;80;21152;-85
2021/04/26 03:45:57;;;;;;;37.55;12.10;;;;;;;7.23;100.00;101043.66;1783122;80;21193;-85
2021/04/26 03:48:26;;;;;;;32.85;12.10;;;;;;;8.17;100.00;101045.24;1783182;80;21353;-86
2021/04/26 03:50:52;;;;;;;30.82;11.63;;;;;;;9.29;100.00;101040.13;1782805;80;21030;-86
2021/04/26 03:53:20;;;;;;;34.23;11.00;;;;;;;10.47;100.00;101046.98;1783129;80;21178;-87
2021/04/26 03:55:46;;;;;;;29.95;12.58;;;;;;;11.28;100.00;101047.71;1779369;80;21065;-86
2021/04/26 03:58:12;;;;;;;27.45;10.82;;;;;;;11.18;91.74;101043.03;1783250;80;20950;-87
2021/04/26 04:00:38;;;;;;;30.10;10.88;;;;;;;10.94;91.80;101046.49;1783101;80;21187;-86
2021/04/26 04:03:09;;;;;;;36.75;12.73;;;;;;;10.55;97.84;101049.23;1783064;80;21169;-85
2021/04/26 04:05:37;;;;;;;39.58;12.82;;;;;;;9.30;94.48;101047.97;1783121;80;21128;-85
2021/04/26 04:08:06;;;;;;;39.40;14.45;;;;;;;8.66;100.00;101036.98;1783104;80;21113;-85
2021/04/26 04:10:34;;;;;;;35.75;12.95;;;;;;;8.32;100.00;101042.09;1782935;80;21141;-85
2021/04/26 04:13:00;;;;;;;42.60;14.10;;;;;;;8.58;100.00;101036.27;1783177;80;21224;-85
2021/04/26 04:15:26;;;;;;;36.77;13.68;;;;;;;8.89;100.00;101038.81;1783101;80;21062;-85
2021/04/26 04:17:53;;;;;;;33.73;13.18;;;;;;;8.98;100.00;101036.03;1783224;80;21602;-85
2021/04/26 04:20:19;;;;;;;39.63;14.83;;;;;;;8.98;100.00;101034.69;1778846;80;21093;-85
2021/04/26 04:22:45;;;;;;;44.38;13.68;;;;;;;8.63;100.00;101029.67;1783308;80;21165;-85
2021/04/26 04:25:13;;;;;;;37.17;13.28;;;;;;;8.71;100.00;101029.03;1783087;80;21989;-85
2021/04/26 04:27:38;;;;;;;40.52;14.65;;;;;;;8.82;100.00;101033.55;1783092;80;21180;-85
2021/04/26 04:30:09;;;;;;;41.68;15.18;;;;;;;8.63;100.00;101024.83;1783164;80;21144;-85
2021/04/26 04:32:35;;;;;;;34.83;12.68;;;;;;;8.46;100.00;101034.13;1783202;80;21160;-85
2021/04/26 04:35:01;;;;;;;30.70;11.60;;;;;;;8.36;100.00;101029.33;1783106;80;21148;-86
2021/04/26 04:37:27;;;;;;;32.78;11.12;;;;;;;7.96;100.00;101029.99;1783133;80;21553;-86
2021/04/26 04:39:53;;;;;;;32.17;11.48;;;;;;;7.68;100.00;101031.19;1783025;80;20974;-86
2021/04/26 04:42:18;;;;;;;28.45;11.05;;;;;;;7.92;100.00;101030.70;1783139;80;20919;-86
2021/04/26 04:44:44;;;;;;;22.67;10.40;;;;;;;8.48;100.00;101025.84;1783387;80;20922;-86
2021/04/26 04:47:10;;;;;;;27.20;10.45;;;;;;;9.18;100.00;101027.56;1783831;80;21011;-86
2021/04/26 04:49:36;;;;;;;25.05;9.68;;;;;;;9.83;100.00;101019.03;1783957;80;21630;-86
2021/04/26 04:52:03;;;;;;;27.07;10.93;;;;;;;10.23;95.93;101018.86;1783015;80;21128;-86
2021/04/26 04:54:29;;;;;;;34.65;11.33;;;;;;;10.91;98.24;101007.39;1783043;80;21220;-86
2021/04/26 04:56:55;;;;;;;28.83;10.95;;;;;;;10.98;89.47;101007.73;1783252;79;21089;-86
2021/04/26 04:59:21;;;;;;;30.60;10.82;;;;;;;11.52;92.01;101006.39;1783362;80;20938;-86
2021/04/26 05:01:47;;;;;;;29.05;11.68;;;;;;;11.08;89.28;101003.25;1783212;80;21129;-86
2021/04/26 05:04:13;;;;;;;31.75;11.60;;;;;;;11.58;90.10;101002.67;1783171;80;21156;-86
2021/04/26 05:06:39;;;;;;;25.12;11.10;;;;;;;11.98;88.96;100996.83;1783268;80;21513;-86
2021/04/26 05:09:06;;;;;;;32.65;11.75;;;;;;;11.90;84.97;100997.84;1783229;80;20962;-86
2021/04/26 05:11:32;;;;;;;29.57;11.57;;;;;;;11.74;85.71;100996.34;1783255;80;21569;-86
2021/04/26 05:14:00;;;;;;;28.20;10.35;;;;;;;11.63;88.38;101001.37;1783110;80;21153;-87
2021/04/26 05:16:28;;;;;;;33.85;13.53;;;;;;;13.08;68.89;100988.44;1783251;80;21455;-86
2021/04/26 05:18:56;;;;;;;29.25;11.55;;;;;;;13.08;68.89;100988.44;1757314;80;21152;-86
2021/04/26 05:21:23;;;;;;;22.80;11.08;;;;;;;14.05;66.05;100993.95;1757103;80;21152;-86
2021/04/26 05:23:49;;;;;;;26.70;10.55;;;;;;;15.62;61.57;100983.50;1783392;80;21073;-86
2021/04/26 05:26:15;;;;;;;27.55;11.28;;;;;;;15.57;55.16;100988.16;1783261;80;21225;-86
2021/04/26 05:28:41;;;;;;;21.15;8.78;;;;;;;16.84;50.17;100977.93;1783157;80;21177;-86
2021/04/26 05:31:07;;;;;;;22.22;10.08;;;;;;;18.98;54.89;100977.53;1783367;80;21594;-86
2021/04/26 05:33:33;;;;;;;23.05;9.40;;;;;;;19.94;44.44;100972.78;1783261;80;21156;-86
2021/04/26 05:35:59;;;;;;;16.65;8.90;;;;;;;21.44;48.73;100971.78;1783205;80;20954;-86
2021/04/26 05:38:25;;;;;;;18.65;9.08;;;;;;;22.00;38.94;100964.94;1783328;80;21648;-86
2021/04/26 05:40:51;;;;;;;19.20;8.78;;;;;;;22.89;42.40;100962.28;1783242;80;21104;-86
2021/04/26 05:43:18;;;;;;;18.42;8.65;;;;;;;23.50;38.14;100960.41;1780517;80;21113;-86
2021/04/26 05:45:45;;;;;;;19.17;8.65;;;;;;;23.87;35.52;100957.23;1748989;80;21148;-87
2021/04/26 05:48:11;;;;;;;18.85;8.15;;;;;;;24.79;35.16;100950.95;1779740;80;21594;-87
2021/04/26 05:50:38;;;;;;;15.58;7.83;;;;;;;26.49;34.02;100955.41;1779767;80;21801;-87
2021/04/26 05:53:06;;;;;;;17.10;8.30;;;;;;;26.90;34.31;100953.76;1779928;80;21156;-88
2021/04/26 05:55:33;;;;;;;18.92;9.03;;;;;;;27.74;30.67;100959.22;1742621;81;21162;-87
2021/04/26 05:57:59;;;;;;;21.02;9.05;;;;;;;26.79;29.06;100947.98;1742929;82;21114;-88
2021/04/26 06:00:26;;;;;;;20.05;8.38;;;;;;;28.45;30.99;100945.21;1742960;82;21528;-87
2021/04/26 06:02:52;;;;;;;19.20;7.50;;;;;;;28.57;29.86;100945.58;1742869;82;21247;-87
2021/04/26 06:05:18;;;;;;;21.00;7.60;;;;;;;28.29;29.43;100941.75;1742864;82;20952;-86
2021/04/26 06:07:45;;;;;;;16.48;6.78;;;;;;;26.66;28.74;100939.61;1742929;82;21615;-85
2021/04/26 06:10:12;;;;;;;15.55;7.08;;;;;;;25.70;28.97;100937.41;1742833;82;21070;-86
2021/04/26 06:12:38;;;;;;;18.45;7.90;;;;;;;25.38;28.28;100937.36;1742985;82;21241;-86
2021/04/26 06:15:06;;;;;;;18.32;7.90;;;;;;;26.07;28.92;100934.44;1742950;82;21205;-86
2021/04/26 06:17:32;;;;;;;20.50;7.67;;;;;;;25.20;29.67;100931.11;1742646;82;21094;-86
2021/04/26 06:19:58;;;;;;;13.80;6.25;;;;;;;24.54;31.20;100930.33;1742753;82;21170;-86
2021/04/26 06:22:24;;;;;;;9.98;4.62;;;;;;;25.43;29.34;100921.11;1742763;82;20960;-86
2021/04/26 06:24:49;;;;;;;11.88;3.98;;;;;;;25.55;27.95;100916.91;1742905;82;21428;-85
2021/04/26 06:27:16;;;;;;;10.98;4.83;;;;;;;25.12;26.75;100916.30;1742888;82;21189;-86
2021/04/26 06:29:41;;;;;;;10.63;4.50;;;;;;;24.57;26.64;100910.92;1742677;82;21227;-86
2021/04/26 06:32:07;;;;;;;9.53;4.87;;;;;;;23.07;29.55;100919.80;1742834;82;20908;-85
2021/04/26 06:34:33;;;;;;;9.25;4.60;;;;;;;23.69;29.60;100909.80;1742856;82;21177;-86
2021/04/26 06:37:02;;;;;;;27.95;9.90;;;;;;;24.25;26.83;100909.31;1743162;82;21613;-85
2021/04/26 06:39:31;;;;;;;508.38;188.95;;;;;;;23.82;27.50;100905.14;1744058;82;21269;-86
2021/04/26 06:41:57;;;;;;;34.85;14.10;;;;;;;24.44;26.32;100903.23;1742746;82;21598;-86
2021/04/26 06:44:23;;;;;;;264.20;122.45;;;;;;;24.59;25.91;100901.16;1742888;82;21197;-86
2021/04/26 06:46:50;;;;;;;71.20;38.30;;;;;;;24.22;26.27;100901.16;1742735;82;21202;-87
2021/04/26 06:49:19;;;;;;;11.93;4.65;;;;;;;24.96;26.76;100905.77;1742830;82;21571;-86
2021/04/26 06:51:43;;;;;;;17.73;9.90;;;;;;;26.77;25.04;100898.34;1747402;80;21609;-88
2021/04/26 06:54:09;;;;;;;33.02;21.07;;;;;;;26.94;24.06;100896.53;1780024;80;20970;-86
2021/04/26 06:56:35;;;;;;;19.10;8.83;;;;;;;27.25;21.94;100894.81;1779960;80;21041;-87
2021/04/26 06:59:03;;;;;;;38.50;23.90;;;;;;;26.83;22.35;100891.38;1775189;80;21014;-87
2021/04/26 07:01:29;;;;;;;42.40;24.05;;;;;;;26.46;24.03;100895.88;1779441;80;21172;-85
2021/04/26 07:03:56;;;;;;;87.10;45.63;;;;;;;27.22;22.55;100890.81;1779858;80;21667;-87
2021/04/26 07:06:25;;;;;;;117.90;60.30;;;;;;;27.20;21.87;100890.95;1709667;83;21157;-86
2021/04/26 07:08:51;;;;;;;18.00;8.73;;;;;;;26.40;22.51;100887.65;1709504;83;21144;-87
2021/04/26 07:11:20;;;;;;;18.55;7.15;;;;;;;25.94;23.68;100882.64;1709641;83;21668;-86
2021/04/26 07:13:46;;;;;;;17.45;6.17;;;;;;;26.17;23.91;100877.84;1709540;83;21145;-88
2021/04/26 07:16:12;;;;;;;19.10;9.93;;;;;;;26.49;23.29;100879.39;1709439;83;21918;-86
2021/04/26 07:18:38;;;;;;;57.85;31.97;;;;;;;27.17;24.01;100879.44;1709476;83;21172;-87
2021/04/26 07:21:05;;;;;;;24.57;11.68;;;;;;;28.74;22.27;100864.59;1709500;83;21156;-87
2021/04/26 07:23:31;;;;;;;16.15;6.62;;;;;;;29.69;21.61;100863.84;1709517;83;21180;-88
2021/04/26 07:25:59;;;;;;;42.23;18.77;;;;;;;29.75;20.85;100867.07;1709574;83;21666;-87
2021/04/26 07:28:25;;;;;;;33.53;13.53;;;;;;;28.68;21.70;100868.08;1709505;83;21752;-86
2021/04/26 07:30:51;;;;;;;36.05;14.85;;;;;;;28.82;21.40;100865.45;1741356;80;21572;-85
2021/04/26 07:35:45;;;;;;;42.95;21.68;;;;;;;28.96;21.18;100868.41;1681433;84;21255;-86
2021/04/26 07:38:11;;;;;;;29.75;14.87;;;;;;;29.50;20.14;100861.25;1681430;85;21243;-88
2021/04/26 07:40:37;;;;;;;20.48;10.60;;;;;;;30.07;19.37;100854.81;1681376;85;22073;-87
2021/04/26 07:43:03;;;;;;;29.75;12.88;;;;;;;29.98;19.15;100858.52;1683401;85;21108;-87
2021/04/26 07:45:30;;;;;;;15.10;7.30;;;;;;;29.10;20.13;100853.92;1686207;85;21057;-87
2021/04/26 07:47:57;;;;;;;9.78;5.20;;;;;;;29.11;20.38;100853.34;1686262;85;21241;-86
2021/04/26 07:50:26;;;;;;;13.48;5.20;;;;;;;29.06;19.76;100848.12;1686207;85;21116;-87
2021/04/26 07:52:51;;;;;;;14.10;5.83;;;;;;;27.70;20.09;100858.63;1686114;85;21708;-87
2021/04/26 07:55:18;;;;;;;13.22;5.28;;;;;;;27.44;21.16;100853.83;1686129;85;21021;-86
2021/04/26 07:57:44;;;;;;;13.98;4.95;;;;;;;27.67;21.61;100846.33;1686068;85;21160;-86
2021/04/26 08:00:12;;;;;;;13.83;4.65;;;;;;;27.15;20.86;100854.13;1686233;85;21108;-86
2021/04/26 08:02:38;;;;;;;11.55;4.53;;;;;;;26.67;20.71;100849.36;1686343;85;21222;-86
2021/04/26 08:07:33;;;;;;;13.10;6.15;;;;;;;24.43;21.46;100849.29;1674942;85;21278;-87
2021/04/26 08:09:59;;;;;;;15.65;5.92;;;;;;;23.41;22.27;100844.95;1675057;85;21679;-87
2021/04/26 08:12:25;;;;;;;12.37;4.33;;;;;;;22.73;22.55;100845.84;1675120;85;22063;-87
2021/04/26 08:14:54;;;;;;;11.48;5.67;;;;;;;21.79;24.45;100844.12;1675144;85;21004;-87
2021/04/26 08:17:20;;;;;;;12.90;5.33;;;;;;;21.38;25.22;100839.27;1675198;85;22074;-86
2021/04/26 08:19:46;;;;;;;8.08;3.65;;;;;;;21.03;25.84;100840.66;1675033;85;21048;-88
2021/04/26 08:22:12;;;;;;;9.85;3.33;;;;;;;20.69;26.70;100836.83;1675173;85;21237;-86
2021/04/26 08:24:38;;;;;;;15.90;5.05;;;;;;;20.59;26.59;100837.16;1675456;85;21660;-86
2021/04/26 08:27:05;;;;;;;14.58;4.53;;;;;;;20.41;27.90;100833.00;1676395;85;21242;-85
2021/04/26 08:29:31;;;;;;;7.72;3.75;;;;;;;21.65;26.65;100829.81;1675620;85;21889;-87
2021/04/26 08:31:57;;;;;;;7.75;3.22;;;;;;;21.97;26.22;100827.83;1688326;82;21163;-86
2021/04/26 08:34:23;;;;;;;6.67;3.10;;;;;;;21.64;26.90;100821.35;1738665;82;21245;-85
2021/04/26 08:36:49;;;;;;;10.55;3.00;;;;;;;21.89;26.43;100814.16;1738834;82;21607;-87
2021/04/26 08:39:17;;;;;;;14.03;3.50;;;;;;;22.03;25.56;100812.52;1738678;82;21020;-86
2021/04/26 08:41:46;;;;;;;12.20;4.37;;;;;;;20.94;26.59;100815.20;1738566;82;21252;-86
2021/04/26 08:44:12;;;;;;;11.40;3.20;;;;;;;20.98;26.16;100802.48;1731994;82;21718;-87
2021/04/26 08:46:46;;;;;;;6.45;3.30;;;;;;;20.37;27.83;100808.74;1730546;82;21227;-87
2021/04/26 08:49:15;;;;;;;8.53;2.60;;;;;;;20.89;27.29;100807.98;1730532;82;21235;-91
2021/04/26 08:51:42;;;;;;;6.22;2.67;;;;;;;20.67;26.41;100808.14;1730799;82;21722;-87
2021/04/26 08:54:08;;;;;;;12.43;4.33;;;;;;;20.52;26.03;100799.28;1730901;82;21793;-87
2021/04/26 08:56:35;;;;;;;12.28;4.58;;;;;;;20.17;26.90;100805.25;1730876;82;21175;-87
2021/04/26 08:59:02;;;;;;;11.45;3.85;;;;;;;19.77;26.86;100802.59;1730549;82;21167;-88
2021/04/26 09:01:28;;;;;;;8.85;3.42;;;;;;;19.33;27.65;100802.13;1730825;82;21171;-87
2021/04/26 09:04:08;;;;;;;9.63;3.42;;;;;;;19.27;27.77;100801.45;1718876;80;20950;-87
2021/04/26 09:09:41;;;;;;;10.15;3.05;;;;;;;18.66;28.58;100805.09;1711056;83;21124;-86
2021/04/26 09:12:14;;;;;;;10.68;4.03;;;;;;;18.05;29.72;100808.61;1711440;83;21530;-86
2021/04/26 09:14:59;;;;;;;7.55;2.90;;;;;;;17.94;29.79;100808.56;1711215;83;21593;-88
2021/04/26 09:17:35;;;;;;;10.20;3.75;;;;;;;17.74;30.77;100807.05;1711279;83;21200;-86
2021/04/26 09:20:24;;;;;;;9.58;3.58;;;;;;;17.74;31.08;100803.52;1710849;83;21217;-86
2021/04/26 09:22:56;;;;;;;8.33;3.37;;;;;;;17.41;32.50;100801.67;1711250;83;21172;-86
2021/04/26 09:25:39;;;;;;;12.03;3.67;;;;;;;17.46;30.66;100805.64;1711438;83;21273;-87
2021/04/26 09:28:16;;;;;;;10.23;4.12;;;;;;;17.20;32.10;100802.56;1711439;83;21533;-86
2021/04/26 09:30:58;;;;;;;11.57;4.15;;;;;;;17.23;32.12;100803.88;1707906;83;21215;-87
2021/04/26 09:33:39;;;;;;;11.40;3.80;;;;;;;17.12;32.10;100797.82;1711317;83;21812;-87
2021/04/26 09:38:47;;;;;;;11.45;4.15;;;;;;;16.90;33.12;100786.75;1697403;84;21223;-86
2021/04/26 09:41:28;;;;;;;13.25;4.22;;;;;;;16.93;33.39;100780.71;1697397;84;21116;-87
2021/04/26 09:44:05;;;;;;;18.25;4.75;;;;;;;16.96;33.19;100778.20;1697346;84;21187;-86
2021/04/26 09:46:48;;;;;;;14.75;4.62;;;;;;;17.30;32.59;100775.72;1695729;84;21378;-86
2021/04/26 09:49:17;;;;;;;12.58;5.37;;;;;;;16.90;33.42;100772.58;1697284;84;21481;-87
2021/04/26 09:51:48;;;;;;;14.35;5.37;;;;;;;16.70;33.11;100769.60;1697264;84;21183;-87
2021/04/26 09:54:18;;;;;;;12.70;4.87;;;;;;;16.56;33.31;100770.13;1697320;84;21191;-88
2021/04/26 09:56:46;;;;;;;15.90;6.08;;;;;;;16.30;34.48;100766.41;1697134;84;21616;-86
2021/04/26 09:59:14;;;;;;;21.90;5.97;;;;;;;16.30;34.48;100766.41;1697422;84;21919;-86
2021/04/26 10:01:42;;;;;;;20.08;6.60;;;;;;;16.10;34.18;100769.41;1697378;84;21104;-86
2021/04/26 10:06:39;;;;;;;16.35;5.78;;;;;;;15.81;34.98;100768.95;1583808;90;21187;-86
2021/04/26 10:09:07;;;;;;;17.27;5.33;;;;;;;15.95;35.28;100768.25;1586812;90;21271;-86
2021/04/26 10:11:36;;;;;;;16.10;4.62;;;;;;;15.57;36.45;100774.36;1586738;90;22037;-85
2021/04/26 10:14:06;;;;;;;16.37;5.03;;;;;;;15.61;36.17;100762.36;1613518;88;21146;-87
2021/04/26 10:16:56;;;;;;;11.68;4.28;;;;;;;15.33;37.45;100767.56;1613977;88;21225;-87
2021/04/26 10:19:50;;;;;;;10.50;3.60;;;;;;;15.34;38.05;100766.45;1613256;88;21222;-87
2021/04/26 10:22:37;;;;;;;13.25;3.70;;;;;;;15.21;39.08;100767.95;1613597;88;21111;-87
2021/04/26 10:25:06;;;;;;;7.50;3.40;;;;;;;15.37;39.04;100771.30;1613490;88;21222;-88
2021/04/26 10:27:39;;;;;;;14.53;3.70;;;;;;;15.30;39.30;100774.12;1613367;88;21190;-91
2021/04/26 10:30:15;;;;;;;8.45;3.85;;;;;;;15.15;40.97;100769.65;1613395;88;22665;-88
2021/04/26 10:33:00;;;;;;;11.90;3.42;;;;;;;15.36;40.17;100771.61;1613234;88;21234;-90
2021/04/26 10:35:55;;;;;;;27.10;3.87;;;;;;;15.29;42.59;100775.20;1638047;86;21182;-90
2021/04/26 10:38:40;;;;;;;14.33;3.95;;;;;;;15.19;43.28;100769.33;1641599;87;21292;-88
2021/04/26 10:41:10;;;;;;;16.05;4.33;;;;;;;15.11;43.91;100779.44;1642092;87;21210;-90
2021/04/26 10:43:36;;;;;;;14.47;3.77;;;;;;;15.14;43.51;100770.17;1641223;87;21163;-90
2021/04/26 10:46:22;;;;;;;12.18;3.62;;;;;;;15.18;44.34;100766.36;1639669;87;21166;-92
2021/04/26 10:49:08;;;;;;;12.98;3.60;;;;;;;15.06;45.53;100767.27;1639770;87;21163;-89
2021/04/26 10:51:37;;;;;;;8.28;3.50;;;;;;;15.03;46.94;100765.95;1638747;87;21819;-89
2021/04/26 10:54:04;;;;;;;13.43;4.28;;;;;;;14.99;45.87;100764.89;1639628;87;20996;-88
2021/04/26 10:56:33;;;;;;;11.18;3.75;;;;;;;15.10;45.81;100763.70;1639694;87;21179;-90
2021/04/26 10:59:20;;;;;;;10.43;4.22;;;;;;;15.01;46.72;100770.85;1616573;87;21187;-89
2021/04/26 11:01:52;;;;;;;14.78;5.20;;;;;;;15.05;47.67;100776.52;1639775;87;21195;-87
2021/04/26 11:04:18;;;;;;;14.60;5.05;;;;;;;15.15;46.33;100766.94;1702611;83;21189;-86
2021/04/26 11:07:16;;;;;;;16.87;5.40;;;;;;;15.24;45.87;100771.20;1718277;83;21538;-87
2021/04/26 11:09:44;;;;;;;17.50;5.80;;;;;;;15.25;45.35;100772.80;1668871;86;21175;-86
2021/04/26 11:14:50;;;;;;;18.10;5.00;;;;;;;15.11;44.95;100769.94;1844510;76;21674;-87
2021/04/26 11:17:22;;;;;;;10.78;4.87;;;;;;;15.05;44.48;100765.10;1782926;79;21203;-86
2021/04/26 11:20:12;;;;;;;12.53;4.60;;;;;;;14.92;44.56;100766.58;1804680;79;21339;-86
2021/04/26 11:22:39;;;;;;;13.03;3.92;;;;;;;14.90;44.48;100761.98;1732317;81;21139;-86
2021/04/26 11:25:07;;;;;;;17.37;4.17;;;;;;;14.95;43.88;100762.49;1757731;81;21103;-86
2021/04/26 11:27:36;;;;;;;13.95;4.00;;;;;;;14.79;44.58;100755.56;1757358;81;21155;-87
2021/04/26 11:30:07;;;;;;;11.28;3.30;;;;;;;14.56;44.87;100764.70;1757494;81;21132;-88
2021/04/26 11:32:33;;;;;;;11.48;3.62;;;;;;;14.46;44.60;100761.47;1757838;81;22072;-88
2021/04/26 11:35:05;;;;;;;14.55;3.62;;;;;;;14.28;45.85;100764.29;1757767;81;21147;-86
2021/04/26 11:37:37;;;;;;;8.78;3.40;;;;;;;14.49;44.85;100760.09;1757764;81;21167;-86
2021/04/26 11:40:19;;;;;;;12.20;3.45;;;;;;;14.18;45.62;100763.01;1755007;81;21124;-87